createdAt,value
2023-03-17T00:02:24.989Z,50.37
2023-03-17T00:04:53.359Z,50.82
2023-03-17T00:07:21.462Z,51.12
2023-03-17T00:14:09.735Z,51.17
2023-03-17T00:16:43.256Z,51.20
2023-03-17T00:19:17.469Z,51.19
2023-03-17T00:21:47.445Z,51.02
2023-03-17T00:24:16.583Z,51.16
2023-03-17T00:26:45.563Z,50.97
2023-03-17T00:29:14.419Z,50.97
2023-03-17T00:31:45.953Z,50.96
2023-03-17T00:34:18.702Z,51.19
2023-03-17T00:36:51.004Z,51.32
2023-03-17T00:39:20.224Z,51.37
2023-03-17T00:41:49.552Z,51.50
2023-03-17T00:44:19.095Z,51.60
2023-03-17T00:46:47.830Z,51.62
2023-03-17T00:49:22.460Z,51.66
2023-03-17T00:51:51.823Z,51.79
2023-03-17T00:54:21.156Z,51.77
2023-03-17T00:56:51.242Z,51.66
2023-03-17T00:59:30.236Z,51.84
2023-03-17T01:01:59.216Z,51.92
2023-03-17T01:04:28.259Z,51.80
2023-03-17T01:06:59.318Z,51.89
2023-03-17T01:09:29.120Z,51.74
2023-03-17T01:12:00.140Z,52.01
2023-03-17T01:14:29.624Z,51.87
2023-03-17T01:16:58.624Z,51.79
2023-03-17T01:19:27.970Z,51.86
2023-03-17T01:21:57.068Z,51.76
2023-03-17T01:24:27.087Z,51.87
2023-03-17T01:26:56.099Z,51.96
2023-03-17T01:29:25.181Z,52.15
2023-03-17T01:31:54.440Z,52.12
2023-03-17T01:34:23.610Z,52.33
2023-03-17T01:36:52.591Z,52.38
2023-03-17T01:39:21.588Z,52.40
2023-03-17T01:41:52.541Z,52.55
2023-03-17T01:44:21.360Z,52.54
2023-03-17T01:46:50.448Z,52.69
2023-03-17T01:49:33.642Z,52.52
2023-03-17T01:52:22.151Z,52.51
2023-03-17T01:54:57.229Z,52.51
2023-03-17T01:57:35.032Z,52.55
2023-03-17T02:00:16.642Z,52.63
2023-03-17T02:02:49.200Z,52.72
2023-03-17T02:05:21.601Z,53.06
2023-03-17T02:07:51.559Z,52.92
2023-03-17T02:10:22.632Z,53.16
2023-03-17T02:12:57.124Z,53.38
2023-03-17T02:15:37.836Z,53.41
2023-03-17T02:18:08.624Z,53.54
2023-03-17T02:20:38.881Z,53.55
2023-03-17T02:23:08.278Z,53.42
2023-03-17T02:25:37.888Z,53.52
2023-03-17T02:28:14.492Z,53.52
2023-03-17T02:30:43.735Z,53.56
2023-03-17T02:33:13.068Z,53.48
2023-03-17T02:35:42.578Z,53.61
2023-03-17T02:38:11.460Z,53.66
2023-03-17T02:40:40.392Z,53.60
2023-03-17T02:43:09.459Z,53.58
2023-03-17T02:45:38.338Z,53.59
2023-03-17T02:48:07.613Z,53.70
2023-03-17T02:50:37.044Z,53.76
2023-03-17T02:53:05.987Z,53.53
2023-03-17T02:55:34.929Z,53.49
2023-03-17T02:58:04.073Z,53.60
2023-03-17T03:00:34.425Z,53.69
2023-03-17T03:03:05.493Z,53.92
2023-03-17T03:05:36.296Z,53.93
2023-03-17T03:08:05.435Z,54.12
2023-03-17T03:10:35.714Z,54.38
2023-03-17T03:13:05.437Z,54.26
2023-03-17T03:15:35.392Z,54.27
2023-03-17T03:18:04.631Z,54.51
2023-03-17T03:20:33.429Z,54.54
2023-03-17T03:23:02.348Z,54.56
2023-03-17T03:25:31.968Z,54.48
2023-03-17T03:28:01.634Z,54.84
2023-03-17T03:30:30.805Z,55.01
2023-03-17T03:33:00.104Z,55.08
2023-03-17T03:35:30.020Z,54.97
2023-03-17T03:37:59.028Z,54.95
2023-03-17T03:40:28.639Z,54.96
2023-03-17T03:42:57.915Z,55.10
2023-03-17T03:45:27.392Z,55.18
2023-03-17T03:47:56.739Z,55.20
2023-03-17T03:50:26.037Z,55.18
2023-03-17T03:52:55.065Z,55.31
2023-03-17T03:55:24.024Z,55.46
2023-03-17T03:57:53.222Z,55.49
2023-03-17T04:00:23.364Z,55.52
2023-03-17T04:02:52.506Z,55.55
2023-03-17T04:05:21.423Z,55.51
2023-03-17T04:07:50.621Z,55.55
2023-03-17T04:10:19.547Z,55.57
2023-03-17T04:12:48.289Z,55.59
2023-03-17T04:15:18.885Z,55.64
2023-03-17T04:17:48.305Z,55.44
2023-03-17T04:20:18.137Z,55.40
2023-03-17T04:22:47.417Z,55.53
2023-03-17T04:25:16.411Z,55.52
2023-03-17T04:27:45.372Z,55.35
2023-03-17T04:30:15.030Z,55.39
2023-03-17T04:32:44.453Z,55.45
2023-03-17T04:35:19.098Z,55.46
2023-03-17T04:37:48.860Z,55.42
2023-03-17T04:40:19.094Z,55.67
2023-03-17T04:42:47.921Z,55.48
2023-03-17T04:45:17.147Z,55.66
2023-03-17T04:47:49.113Z,55.55
2023-03-17T04:50:18.384Z,55.56
2023-03-17T04:52:47.582Z,55.58
2023-03-17T04:55:16.917Z,55.55
2023-03-17T04:57:46.294Z,55.51
2023-03-17T05:00:15.906Z,55.62
2023-03-17T05:02:44.879Z,55.79
2023-03-17T05:05:14.055Z,55.81
2023-03-17T05:07:45.320Z,55.95
2023-03-17T05:10:14.185Z,56.02
2023-03-17T05:12:43.310Z,56.04
2023-03-17T05:15:12.776Z,56.22
2023-03-17T05:17:41.637Z,56.26
2023-03-17T05:20:11.073Z,56.21
2023-03-17T05:22:40.340Z,56.23
2023-03-17T05:25:09.590Z,56.42
2023-03-17T05:27:38.432Z,56.34
2023-03-17T05:30:08.845Z,56.50
2023-03-17T05:32:37.632Z,56.69
2023-03-17T05:35:07.450Z,56.65
2023-03-17T05:37:36.461Z,56.61
2023-03-17T05:40:05.859Z,56.50
2023-03-17T05:42:34.954Z,56.51
2023-03-17T05:45:05.711Z,56.43
2023-03-17T05:47:34.918Z,56.41
2023-03-17T05:50:05.210Z,56.31
2023-03-17T05:52:34.068Z,56.29
2023-03-17T05:55:03.440Z,56.14
2023-03-17T05:57:32.338Z,56.19
2023-03-17T06:00:01.446Z,56.10
2023-03-17T06:02:30.811Z,56.00
2023-03-17T06:04:59.747Z,55.91
2023-03-17T06:07:38.180Z,55.82
2023-03-17T06:10:18.912Z,55.40
2023-03-17T06:12:48.001Z,55.21
2023-03-17T06:15:17.523Z,55.19
2023-03-17T06:17:46.884Z,55.14
2023-03-17T06:20:16.301Z,54.97
2023-03-17T06:23:02.155Z,54.85
2023-03-17T06:25:33.786Z,54.39
2023-03-17T06:28:04.574Z,54.07
2023-03-17T06:30:34.392Z,53.67
2023-03-17T06:33:04.019Z,53.41
2023-03-17T06:35:33.976Z,53.36
2023-03-17T06:38:04.019Z,52.91
2023-03-17T06:40:34.408Z,52.52
2023-03-17T06:43:03.550Z,52.56
2023-03-17T06:45:33.413Z,52.48
2023-03-17T06:48:02.855Z,52.31
2023-03-17T06:50:32.082Z,52.14
2023-03-17T06:53:01.357Z,51.62
2023-03-17T06:55:30.589Z,51.67
2023-03-17T06:57:59.580Z,51.62
2023-03-17T07:00:28.437Z,51.55
2023-03-17T07:02:58.087Z,51.20
2023-03-17T07:05:27.252Z,51.02
2023-03-17T07:07:56.353Z,50.72
2023-03-17T07:10:25.958Z,50.85
2023-03-17T07:12:55.481Z,50.38
2023-03-17T07:15:25.109Z,50.47
2023-03-17T07:17:54.710Z,50.28
2023-03-17T07:20:23.760Z,50.59
2023-03-17T07:22:52.780Z,50.44
2023-03-17T07:25:22.777Z,50.32
2023-03-17T07:27:52.417Z,50.11
2023-03-17T07:30:22.284Z,49.62
2023-03-17T07:32:51.578Z,49.40
2023-03-17T07:35:20.753Z,48.63
2023-03-17T07:37:50.914Z,48.27
2023-03-17T07:40:19.865Z,48.18
2023-03-17T07:42:48.762Z,48.13
2023-03-17T07:45:17.703Z,47.82
2023-03-17T07:47:46.878Z,47.18
2023-03-17T07:50:15.890Z,46.75
2023-03-17T07:52:44.760Z,46.51
2023-03-17T07:55:20.085Z,46.30
2023-03-17T07:57:54.083Z,46.60
2023-03-17T08:00:24.961Z,45.48
2023-03-17T08:03:08.898Z,44.96
2023-03-17T08:05:43.072Z,44.37
2023-03-17T08:08:13.734Z,44.11
2023-03-17T08:10:45.438Z,44.14
2023-03-17T08:13:17.270Z,43.41
2023-03-17T08:15:48.989Z,43.20
2023-03-17T08:18:20.376Z,42.71
2023-03-17T08:20:53.806Z,42.43
2023-03-17T08:23:27.785Z,42.66
2023-03-17T08:26:01.241Z,41.54
2023-03-17T08:28:32.921Z,40.54
2023-03-17T08:31:19.487Z,39.88
2023-03-17T08:33:56.328Z,40.12
2023-03-17T08:36:29.627Z,39.19
2023-03-17T08:39:03.567Z,39.40
2023-03-17T08:41:38.712Z,39.16
2023-03-17T08:44:11.776Z,38.82
2023-03-17T08:46:44.346Z,37.84
2023-03-17T08:49:18.381Z,38.01
2023-03-17T08:51:49.402Z,38.08
2023-03-17T08:54:18.306Z,36.98
2023-03-17T08:56:57.824Z,36.88
2023-03-17T08:59:27.362Z,37.33
2023-03-17T14:02:44.913Z,21.58
2023-03-17T14:05:29.563Z,20.99
2023-03-17T14:08:11.225Z,20.58
2023-03-17T14:10:47.821Z,20.77
2023-03-17T14:13:44.695Z,20.79
2023-03-17T14:16:53.084Z,20.24
2023-03-17T14:24:35.806Z,19.88
2023-03-17T14:27:08.307Z,20.00
2023-03-17T14:29:37.204Z,19.91
2023-03-17T14:32:16.677Z,19.78
2023-03-17T14:34:58.509Z,19.80
2023-03-17T14:37:27.871Z,19.92
2023-03-17T14:39:57.625Z,19.68
2023-03-17T14:42:30.767Z,19.81
2023-03-17T14:45:01.785Z,19.08
2023-03-17T14:47:37.249Z,19.12
2023-03-17T14:50:13.482Z,19.47
2023-03-17T14:52:41.544Z,19.49
2023-03-17T14:55:14.528Z,19.58
2023-03-17T14:57:42.540Z,19.55
2023-03-17T15:00:22.760Z,19.26
2023-03-17T15:02:58.906Z,19.26
2023-03-17T15:05:40.395Z,19.48
2023-03-17T15:08:48.040Z,19.71
2023-03-17T15:11:23.890Z,19.63
2023-03-17T15:13:56.933Z,20.36
2023-03-17T15:16:29.883Z,20.72
2023-03-17T15:19:15.272Z,20.88
2023-03-17T15:21:43.378Z,21.52
2023-03-17T15:24:33.760Z,21.99
2023-03-17T15:27:21.316Z,22.67
2023-03-17T15:38:55.858Z,24.15
2023-03-17T15:41:23.697Z,24.56
2023-03-17T15:43:51.790Z,24.66
2023-03-17T15:46:24.489Z,24.64
2023-03-17T15:48:52.425Z,24.56
2023-03-17T15:51:20.303Z,24.73
2023-03-17T15:53:48.282Z,25.02
2023-03-17T15:56:19.197Z,25.24
2023-03-17T15:58:49.624Z,25.40
2023-03-17T16:01:17.965Z,25.52
2023-03-17T16:03:47.149Z,25.98
2023-03-17T16:06:21.606Z,25.95
2023-03-17T16:08:49.842Z,26.02
2023-03-17T16:11:23.307Z,26.28
2023-03-17T16:13:51.088Z,26.58
2023-03-17T16:16:26.457Z,26.72
2023-03-17T16:18:54.249Z,27.00
2023-03-17T16:21:22.252Z,27.39
2023-03-17T16:23:50.285Z,27.52
2023-03-17T16:26:36.324Z,27.74
2023-03-17T16:29:12.681Z,27.82
2023-03-17T16:31:41.050Z,28.03
2023-03-17T16:34:22.505Z,28.18
2023-03-17T16:36:51.356Z,28.39
2023-03-17T16:39:22.571Z,28.68
2023-03-17T16:41:50.628Z,28.97
2023-03-17T16:44:20.388Z,28.96
2023-03-17T16:46:48.549Z,29.22
2023-03-17T16:49:19.084Z,29.48
2023-03-17T16:51:48.747Z,29.63
2023-03-17T16:54:17.849Z,29.86
2023-03-17T16:56:45.760Z,30.03
2023-03-17T16:59:22.194Z,30.22
2023-03-17T17:01:50.260Z,30.51
2023-03-17T17:04:18.095Z,30.77
2023-03-17T17:06:47.423Z,30.93
2023-03-17T17:09:16.864Z,31.08
2023-03-17T17:11:44.630Z,31.33
2023-03-17T17:14:12.673Z,31.57
2023-03-17T17:16:40.707Z,31.85
2023-03-17T17:19:18.993Z,32.15
2023-03-17T17:21:47.909Z,32.31
2023-03-17T17:24:18.220Z,32.68
2023-03-17T17:26:46.026Z,32.90
2023-03-17T17:29:13.758Z,33.05
2023-03-17T17:31:41.840Z,33.21
2023-03-17T17:34:09.845Z,33.47
2023-03-17T17:36:37.701Z,33.58
2023-03-17T17:39:06.784Z,33.95
2023-03-17T17:41:34.815Z,34.06
2023-03-17T17:44:02.734Z,34.28
2023-03-17T17:46:30.801Z,34.22
2023-03-17T17:48:58.720Z,34.54
2023-03-17T17:51:28.180Z,34.60
2023-03-17T17:53:56.632Z,34.92
2023-03-17T17:56:24.691Z,35.11
2023-03-17T17:58:52.484Z,35.27
2023-03-17T18:01:22.595Z,35.41
2023-03-17T18:03:50.511Z,35.69
2023-03-17T18:06:18.444Z,35.90
2023-03-17T18:08:46.368Z,35.92
2023-03-17T18:11:14.204Z,36.05
2023-03-17T18:13:42.182Z,36.40
2023-03-17T18:16:18.222Z,36.37
2023-03-17T18:18:47.217Z,36.53
2023-03-17T18:21:15.951Z,36.69
2023-03-17T18:23:47.264Z,36.90
2023-03-17T18:26:16.303Z,37.14
2023-03-17T18:28:44.521Z,37.11
2023-03-17T18:31:16.703Z,37.24
2023-03-17T18:33:45.164Z,37.31
2023-03-17T18:36:13.193Z,37.49
2023-03-17T18:38:41.062Z,37.58
2023-03-17T18:41:11.040Z,37.67
2023-03-17T18:43:41.021Z,37.73
2023-03-17T18:46:08.809Z,37.72
2023-03-17T18:48:36.571Z,37.89
2023-03-17T18:51:04.656Z,38.16
2023-03-17T18:53:34.580Z,38.28
2023-03-17T18:56:02.817Z,38.37
2023-03-17T18:58:30.897Z,38.32
2023-03-17T19:01:01.513Z,38.33
2023-03-17T19:03:32.020Z,38.54
2023-03-17T19:06:08.936Z,38.76
2023-03-17T19:08:38.312Z,38.70
2023-03-17T19:11:07.840Z,38.60
2023-03-17T19:13:37.354Z,38.63
2023-03-17T19:16:07.551Z,38.69
2023-03-17T19:18:36.961Z,38.79
2023-03-17T19:21:05.240Z,38.89
2023-03-17T19:23:33.752Z,39.13
2023-03-17T19:26:02.763Z,39.29
2023-03-17T19:28:31.642Z,39.39
2023-03-17T19:30:59.521Z,39.36
2023-03-17T19:33:28.861Z,39.34
2023-03-17T19:35:59.911Z,39.47
2023-03-17T19:38:28.088Z,39.45
2023-03-17T19:40:56.020Z,39.40
2023-03-17T19:43:39.478Z,39.30
2023-03-17T19:46:10.059Z,39.50
2023-03-17T19:48:38.353Z,39.44
2023-03-17T19:51:06.756Z,39.43
2023-03-17T19:53:34.658Z,39.38
2023-03-17T19:56:02.432Z,39.44
2023-03-17T19:58:30.636Z,39.43
2023-03-17T20:00:58.441Z,39.46
2023-03-17T20:03:26.505Z,39.45
2023-03-17T20:05:54.422Z,39.70
2023-03-17T20:08:22.556Z,39.80
2023-03-17T20:10:52.856Z,39.77
2023-03-17T20:13:21.901Z,40.00
2023-03-17T20:15:51.503Z,39.93
2023-03-17T20:18:19.810Z,39.82
2023-03-17T20:20:54.912Z,40.06
2023-03-17T20:23:23.702Z,40.25
2023-03-17T20:25:52.677Z,40.37
2023-03-17T20:28:24.122Z,40.37
2023-03-17T20:30:52.025Z,40.54
2023-03-17T20:33:19.954Z,40.57
2023-03-17T20:35:48.093Z,40.46
2023-03-17T20:38:16.035Z,40.40
2023-03-17T20:40:43.910Z,40.38
2023-03-17T20:43:11.756Z,40.36
2023-03-17T20:45:39.780Z,40.25
2023-03-17T20:48:11.197Z,40.36
2023-03-17T20:50:41.064Z,40.29
2023-03-17T20:53:08.838Z,40.07
2023-03-17T20:55:37.530Z,40.04
2023-03-17T20:58:05.294Z,39.91
2023-03-17T21:00:33.498Z,39.99
2023-03-17T21:03:02.132Z,40.04
2023-03-17T21:05:30.282Z,40.07
2023-03-17T21:07:58.332Z,40.01
2023-03-17T21:10:26.088Z,40.11
2023-03-17T21:12:53.936Z,40.02
2023-03-17T21:15:23.582Z,40.11
2023-03-17T21:17:51.384Z,40.14
2023-03-17T21:20:21.154Z,40.12
2023-03-17T21:22:48.920Z,39.98
2023-03-17T21:25:16.785Z,39.92
2023-03-17T21:27:45.696Z,39.88
2023-03-17T21:30:14.459Z,39.94
2023-03-17T21:32:42.435Z,39.72
2023-03-17T21:35:10.622Z,39.70
2023-03-17T21:37:38.478Z,39.67
2023-03-17T21:40:07.017Z,39.77
2023-03-17T21:42:35.004Z,39.81
2023-03-17T21:45:02.874Z,39.82
2023-03-17T21:47:30.685Z,39.87
2023-03-17T21:49:58.432Z,39.88
2023-03-17T21:52:26.337Z,39.85
2023-03-17T21:54:54.860Z,39.87
2023-03-17T21:57:22.877Z,39.79
2023-03-17T21:59:50.751Z,39.76
2023-03-17T22:02:18.796Z,40.04
2023-03-17T22:04:47.197Z,39.84
2023-03-17T22:07:16.787Z,39.82
2023-03-17T22:09:45.028Z,39.81
2023-03-17T22:12:13.667Z,39.71
2023-03-17T22:14:41.688Z,39.88
2023-03-17T22:17:10.097Z,39.84
2023-03-17T22:19:37.943Z,39.76
2023-03-17T22:22:05.803Z,39.77
2023-03-17T22:24:34.022Z,39.91
2023-03-17T22:27:01.822Z,39.95
2023-03-17T22:29:30.497Z,39.88
2023-03-17T22:31:59.128Z,39.84
2023-03-17T22:34:27.497Z,39.81
2023-03-17T22:36:55.403Z,39.83
2023-03-17T22:39:23.201Z,40.09
2023-03-17T22:41:51.164Z,40.24
2023-03-17T22:44:19.195Z,40.16
2023-03-17T22:46:47.171Z,40.12
2023-03-17T22:49:15.162Z,40.26
2023-03-17T22:51:43.101Z,40.17
2023-03-17T22:54:12.217Z,40.08
2023-03-17T22:56:40.176Z,40.36
2023-03-17T22:59:07.899Z,40.17
2023-03-17T23:01:35.803Z,40.26
2023-03-17T23:04:03.689Z,40.25
2023-03-17T23:06:31.777Z,40.47
2023-03-17T23:08:59.584Z,40.46
2023-03-17T23:11:28.088Z,40.71
2023-03-17T23:13:55.909Z,40.39
2023-03-17T23:16:24.047Z,40.58
2023-03-17T23:18:52.713Z,40.51
2023-03-17T23:21:29.566Z,40.50
2023-03-17T23:23:57.676Z,40.43
2023-03-17T23:26:25.657Z,40.42
2023-03-17T23:28:53.791Z,40.56
2023-03-17T23:31:22.590Z,40.56
2023-03-17T23:33:51.269Z,40.53
2023-03-17T23:36:19.671Z,40.43
2023-03-17T23:38:48.622Z,40.54
2023-03-17T23:41:17.442Z,40.71
2023-03-17T23:43:46.637Z,40.59
2023-03-17T23:46:14.883Z,40.58
2023-03-17T23:48:43.266Z,40.65
2023-03-17T23:51:12.669Z,40.44
2023-03-17T23:53:41.925Z,40.50
2023-03-17T23:56:11.455Z,40.61
2023-03-17T23:58:43.297Z,40.65
